Hinckley, Illinois
Current Conditions -  °F | °C
As of 1:52 AM on Monday 22 Dec 2014 (Local Time) from KARR Reporting Station
Haze Haze  
Wind Chill: 25°   Ceiling: 5500
Heat Index: 33°   Visibility: 5mi
Dew Point: 27°   Wind: 10mph
Humidity: 78%   Direction: 140°SE
Pressure: 29.97"   Gusts: NA
Location:  41.77°N, 88.64°W
Report Text: KARR 220752Z AUTO 14009KT 5SM HZ OVC055 01/M03 A2997 RMK AO2 SLP156 T00061028
Loading
Personal Weather Stations






























Interactive Weather Map New forecast layout! Learn more

10-Day Weather Forecast

Advertisements
Track Severe Weather on mobile